GLO1858 SBGL-SBVT
Flight info
| Callsign | GLO1858 |
|---|---|
| Flight time | 0h 54m |
| Altitude | 31000 |
| Route | TISVA UL206 TODET |
| Aircraft | B738/M-SDE2E3FGHIRWXY/LB1 |
Departure
| Time | 2026-04-21 02:06 |
|---|---|
| Airport | Rio Galeão – Tom Jobim International Airport (SBGL) |
Arrival
| Time | 2026-04-21 03:00 |
|---|---|
| Airport | Eurico de Aguiar Salles International Airport (SBVT) |
| Time | Latitude | Longitude | Altitude | Speed | Heading |
|---|---|---|---|---|---|
| 2026-04-21 01:31 | -22.81596 | -43.24691 | 21 ft | 0 kts | 26° |
| 2026-04-21 01:53 | -22.81598 | -43.24692 | 21 ft | 2 kts | 26° |
| 2026-04-21 01:53 | -22.81613 | -43.24700 | 22 ft | 2 kts | 25° |
| 2026-04-21 01:53 | -22.81633 | -43.24709 | 21 ft | 2 kts | 6° |
| 2026-04-21 01:53 | -22.81647 | -43.24704 | 21 ft | 2 kts | 310° |
| 2026-04-21 01:54 | -22.81650 | -43.24701 | 23 ft | 1 kts | 306° |
| 2026-04-21 01:54 | -22.81651 | -43.24700 | 23 ft | 0 kts | 305° |
| 2026-04-21 01:57 | -22.81649 | -43.24702 | 21 ft | 2 kts | 305° |
| 2026-04-21 01:58 | -22.81625 | -43.24741 | 21 ft | 10 kts | 304° |
| 2026-04-21 01:58 | -22.81574 | -43.24822 | 21 ft | 14 kts | 304° |
| 2026-04-21 01:58 | -22.81511 | -43.24901 | 22 ft | 14 kts | 301° |
| 2026-04-21 01:58 | -22.81464 | -43.24987 | 21 ft | 13 kts | 300° |
| 2026-04-21 01:59 | -22.81419 | -43.25071 | 21 ft | 13 kts | 301° |
| 2026-04-21 01:59 | -22.81362 | -43.25142 | 12 ft | 12 kts | 314° |
| 2026-04-21 01:59 | -22.81310 | -43.25214 | 18 ft | 12 kts | 306° |
| 2026-04-21 01:59 | -22.81260 | -43.25285 | 19 ft | 12 kts | 313° |
| 2026-04-21 02:00 | -22.81186 | -43.25350 | 18 ft | 16 kts | 330° |
| 2026-04-21 02:00 | -22.81062 | -43.25386 | 18 ft | 21 kts | 358° |
| 2026-04-21 02:00 | -22.80954 | -43.25412 | 19 ft | 15 kts | 304° |
| 2026-04-21 02:00 | -22.80909 | -43.25513 | 25 ft | 15 kts | 296° |
| 2026-04-21 02:01 | -22.80823 | -43.25580 | 19 ft | 19 kts | 24° |
| 2026-04-21 02:01 | -22.80721 | -43.25505 | 19 ft | 17 kts | 35° |
| 2026-04-21 02:01 | -22.80623 | -43.25431 | 24 ft | 16 kts | 35° |
| 2026-04-21 02:01 | -22.80527 | -43.25373 | 26 ft | 15 kts | 359° |
| 2026-04-21 02:02 | -22.80440 | -43.25422 | 25 ft | 14 kts | 336° |
| 2026-04-21 02:02 | -22.80363 | -43.25475 | 25 ft | 13 kts | 325° |
| 2026-04-21 02:02 | -22.80343 | -43.25489 | 24 ft | 0 kts | 327° |
| 2026-04-21 02:04 | -22.80327 | -43.25500 | 43 ft | 7 kts | 331° |
| 2026-04-21 02:04 | -22.80264 | -43.25514 | 24 ft | 11 kts | 12° |
| 2026-04-21 02:04 | -22.80203 | -43.25473 | 26 ft | 10 kts | 37° |
| 2026-04-21 02:05 | -22.80164 | -43.25412 | 25 ft | 9 kts | 73° |
| 2026-04-21 02:05 | -22.80153 | -43.25374 | 24 ft | 28 kts | 73° |
| 2026-04-21 02:05 | -22.80006 | -43.24811 | 27 ft | 124 kts | 74° |
| 2026-04-21 02:05 | -22.79690 | -43.23628 | 29 ft | 200 kts | 72° |
| 2026-04-21 02:06 | -22.79291 | -43.22079 | 622 ft | 226 kts | 76° |
| 2026-04-21 02:06 | -22.78935 | -43.20350 | 1578 ft | 239 kts | 82° |
| 2026-04-21 02:06 | -22.78766 | -43.18473 | 2409 ft | 257 kts | 86° |
| 2026-04-21 02:06 | -22.78569 | -43.16527 | 3226 ft | 263 kts | 84° |
| 2026-04-21 02:07 | -22.78294 | -43.14570 | 3854 ft | 269 kts | 82° |
| 2026-04-21 02:07 | -22.77958 | -43.12553 | 4516 ft | 274 kts | 81° |
| 2026-04-21 02:07 | -22.77581 | -43.10506 | 5186 ft | 279 kts | 79° |
| 2026-04-21 02:07 | -22.77173 | -43.08434 | 5872 ft | 282 kts | 79° |
| 2026-04-21 02:08 | -22.76733 | -43.06344 | 6564 ft | 287 kts | 74° |
| 2026-04-21 02:08 | -22.75952 | -43.04337 | 7212 ft | 291 kts | 63° |
| 2026-04-21 02:08 | -22.74961 | -43.02406 | 7905 ft | 295 kts | 60° |
| 2026-04-21 02:08 | -22.73926 | -43.00499 | 8594 ft | 299 kts | 60° |
| 2026-04-21 02:09 | -22.72864 | -42.98546 | 9323 ft | 302 kts | 60° |
| 2026-04-21 02:09 | -22.71797 | -42.96563 | 10039 ft | 307 kts | 61° |
| 2026-04-21 02:09 | -22.70716 | -42.94528 | 10527 ft | 320 kts | 61° |
| 2026-04-21 02:09 | -22.69571 | -42.92354 | 10691 ft | 343 kts | 61° |
| 2026-04-21 02:10 | -22.68363 | -42.90040 | 10999 ft | 358 kts | 61° |
| 2026-04-21 02:10 | -22.67127 | -42.87666 | 11585 ft | 363 kts | 61° |
| 2026-04-21 02:10 | -22.65904 | -42.85309 | 12302 ft | 364 kts | 61° |
| 2026-04-21 02:10 | -22.64660 | -42.82909 | 13021 ft | 366 kts | 61° |
| 2026-04-21 02:11 | -22.63409 | -42.80490 | 13729 ft | 369 kts | 61° |
| 2026-04-21 02:11 | -22.62145 | -42.78047 | 14363 ft | 372 kts | 61° |
| 2026-04-21 02:11 | -22.60875 | -42.75593 | 14998 ft | 375 kts | 61° |
| 2026-04-21 02:11 | -22.59596 | -42.73121 | 15647 ft | 377 kts | 62° |
| 2026-04-21 02:12 | -22.58321 | -42.70658 | 16285 ft | 380 kts | 62° |
| 2026-04-21 02:12 | -22.57020 | -42.68146 | 16897 ft | 383 kts | 62° |
| 2026-04-21 02:12 | -22.55710 | -42.65618 | 17503 ft | 386 kts | 62° |
| 2026-04-21 02:12 | -22.54390 | -42.63071 | 18104 ft | 390 kts | 62° |
| 2026-04-21 02:13 | -22.53059 | -42.60504 | 18650 ft | 392 kts | 62° |
| 2026-04-21 02:13 | -22.51717 | -42.57918 | 19114 ft | 396 kts | 62° |
| 2026-04-21 02:13 | -22.50369 | -42.55323 | 19582 ft | 400 kts | 62° |
| 2026-04-21 02:13 | -22.49000 | -42.52686 | 20052 ft | 404 kts | 62° |
| 2026-04-21 02:14 | -22.47620 | -42.50031 | 20517 ft | 407 kts | 62° |
| 2026-04-21 02:14 | -22.46222 | -42.47341 | 20974 ft | 411 kts | 62° |
| 2026-04-21 02:14 | -22.44813 | -42.44632 | 21439 ft | 415 kts | 62° |
| 2026-04-21 02:14 | -22.43404 | -42.41926 | 21878 ft | 418 kts | 62° |
| 2026-04-21 02:15 | -22.41970 | -42.39171 | 22320 ft | 422 kts | 63° |
| 2026-04-21 02:15 | -22.40525 | -42.36399 | 22773 ft | 425 kts | 63° |
| 2026-04-21 02:15 | -22.39061 | -42.33591 | 23192 ft | 429 kts | 63° |
| 2026-04-21 02:15 | -22.37589 | -42.30767 | 23575 ft | 432 kts | 63° |
| 2026-04-21 02:16 | -22.36121 | -42.27955 | 23930 ft | 436 kts | 63° |
| 2026-04-21 02:16 | -22.34625 | -42.25091 | 24292 ft | 438 kts | 63° |
| 2026-04-21 02:16 | -22.33123 | -42.22217 | 24659 ft | 440 kts | 63° |
| 2026-04-21 02:16 | -22.31611 | -42.19325 | 25031 ft | 443 kts | 63° |
| 2026-04-21 02:17 | -22.30086 | -42.16410 | 25356 ft | 446 kts | 63° |
| 2026-04-21 02:17 | -22.28556 | -42.13484 | 25695 ft | 448 kts | 63° |
| 2026-04-21 02:17 | -22.27016 | -42.10545 | 26009 ft | 451 kts | 63° |
| 2026-04-21 02:17 | -22.25484 | -42.07620 | 26335 ft | 453 kts | 63° |
| 2026-04-21 02:18 | -22.23925 | -42.04647 | 26677 ft | 456 kts | 63° |
| 2026-04-21 02:18 | -22.22357 | -42.01657 | 26994 ft | 458 kts | 63° |
| 2026-04-21 02:18 | -22.20778 | -41.98648 | 27319 ft | 460 kts | 63° |
| 2026-04-21 02:18 | -22.19193 | -41.95629 | 27638 ft | 463 kts | 63° |
| 2026-04-21 02:19 | -22.17617 | -41.92628 | 27928 ft | 465 kts | 63° |
| 2026-04-21 02:19 | -22.16015 | -41.89582 | 28231 ft | 468 kts | 63° |
| 2026-04-21 02:19 | -22.14342 | -41.86557 | 28551 ft | 472 kts | 58° |
| 2026-04-21 02:19 | -22.12292 | -41.83760 | 28909 ft | 476 kts | 50° |
| 2026-04-21 02:20 | -22.09899 | -41.81370 | 29367 ft | 476 kts | 42° |
| 2026-04-21 02:20 | -22.07328 | -41.79114 | 29843 ft | 476 kts | 41° |
| 2026-04-21 02:20 | -22.04743 | -41.76882 | 30244 ft | 475 kts | 41° |
| 2026-04-21 02:20 | -22.02170 | -41.74638 | 30590 ft | 475 kts | 42° |
| 2026-04-21 02:21 | -21.99613 | -41.72370 | 30911 ft | 476 kts | 42° |
| 2026-04-21 02:21 | -21.97069 | -41.70093 | 31109 ft | 478 kts | 43° |
| 2026-04-21 02:21 | -21.94505 | -41.67794 | 31094 ft | 479 kts | 43° |
| 2026-04-21 02:22 | -21.89396 | -41.63239 | 31096 ft | 474 kts | 43° |
| 2026-04-21 02:22 | -21.84306 | -41.58714 | 31105 ft | 476 kts | 43° |
| 2026-04-21 02:23 | -21.79190 | -41.54166 | 31104 ft | 477 kts | 43° |
| 2026-04-21 02:23 | -21.74069 | -41.49616 | 31105 ft | 478 kts | 43° |
| 2026-04-21 02:24 | -21.68959 | -41.45079 | 31098 ft | 478 kts | 43° |
| 2026-04-21 02:24 | -21.63822 | -41.40525 | 31094 ft | 478 kts | 42° |
| 2026-04-21 02:25 | -21.58676 | -41.35986 | 31096 ft | 477 kts | 42° |
| 2026-04-21 02:25 | -21.53538 | -41.31459 | 31098 ft | 477 kts | 43° |
| 2026-04-21 02:26 | -21.48412 | -41.26943 | 31091 ft | 473 kts | 43° |
| 2026-04-21 02:26 | -21.43422 | -41.22525 | 31099 ft | 464 kts | 43° |
| 2026-04-21 02:27 | -21.38438 | -41.18102 | 31008 ft | 466 kts | 43° |
| 2026-04-21 02:27 | -21.35937 | -41.15885 | 30626 ft | 464 kts | 43° |
| 2026-04-21 02:27 | -21.33464 | -41.13698 | 30222 ft | 459 kts | 42° |
| 2026-04-21 02:27 | -21.31005 | -41.11524 | 29719 ft | 455 kts | 42° |
| 2026-04-21 02:28 | -21.28596 | -41.09402 | 29361 ft | 449 kts | 42° |
| 2026-04-21 02:28 | -21.26194 | -41.07291 | 28888 ft | 445 kts | 42° |
| 2026-04-21 02:28 | -21.23809 | -41.05197 | 28439 ft | 441 kts | 42° |
| 2026-04-21 02:28 | -21.21447 | -41.03121 | 27985 ft | 437 kts | 42° |
| 2026-04-21 02:29 | -21.19100 | -41.01060 | 27536 ft | 434 kts | 42° |
| 2026-04-21 02:29 | -21.16771 | -40.99013 | 27093 ft | 431 kts | 42° |
| 2026-04-21 02:29 | -21.14459 | -40.96982 | 26649 ft | 428 kts | 42° |
| 2026-04-21 02:29 | -21.12161 | -40.94964 | 26208 ft | 425 kts | 42° |
| 2026-04-21 02:30 | -21.09905 | -40.92984 | 25780 ft | 423 kts | 42° |
| 2026-04-21 02:30 | -21.07635 | -40.90994 | 25324 ft | 421 kts | 42° |
| 2026-04-21 02:30 | -21.05372 | -40.89010 | 24899 ft | 418 kts | 42° |
| 2026-04-21 02:30 | -21.03125 | -40.87043 | 24498 ft | 416 kts | 42° |
| 2026-04-21 02:31 | -21.00892 | -40.85087 | 24061 ft | 414 kts | 42° |
| 2026-04-21 02:31 | -20.98665 | -40.83138 | 23617 ft | 413 kts | 42° |
| 2026-04-21 02:31 | -20.96442 | -40.81191 | 23116 ft | 411 kts | 41° |
| 2026-04-21 02:31 | -20.94241 | -40.79264 | 22655 ft | 408 kts | 41° |
| 2026-04-21 02:32 | -20.92052 | -40.77349 | 22211 ft | 404 kts | 41° |
| 2026-04-21 02:32 | -20.89910 | -40.75475 | 21781 ft | 401 kts | 41° |
| 2026-04-21 02:32 | -20.87546 | -40.73408 | 21314 ft | 397 kts | 41° |
| 2026-04-21 02:33 | -20.85413 | -40.71544 | 20896 ft | 394 kts | 40° |
| 2026-04-21 02:33 | -20.83292 | -40.69691 | 20479 ft | 391 kts | 40° |
| 2026-04-21 02:33 | -20.81183 | -40.67867 | 20060 ft | 389 kts | 37° |
| 2026-04-21 02:33 | -20.78821 | -40.66504 | 19722 ft | 384 kts | 22° |
| 2026-04-21 02:34 | -20.76377 | -40.65453 | 19341 ft | 381 kts | 22° |
| 2026-04-21 02:34 | -20.73918 | -40.64405 | 18941 ft | 379 kts | 22° |
| 2026-04-21 02:34 | -20.71479 | -40.63359 | 18516 ft | 377 kts | 22° |
| 2026-04-21 02:34 | -20.69052 | -40.62308 | 18064 ft | 375 kts | 22° |
| 2026-04-21 02:35 | -20.66640 | -40.61256 | 17618 ft | 372 kts | 22° |
| 2026-04-21 02:35 | -20.64241 | -40.60204 | 17193 ft | 369 kts | 22° |
| 2026-04-21 02:35 | -20.61899 | -40.59175 | 16790 ft | 367 kts | 22° |
| 2026-04-21 02:35 | -20.59547 | -40.58141 | 16387 ft | 364 kts | 22° |
| 2026-04-21 02:36 | -20.57217 | -40.57116 | 15983 ft | 361 kts | 22° |
| 2026-04-21 02:36 | -20.54896 | -40.56096 | 15581 ft | 359 kts | 22° |
| 2026-04-21 02:36 | -20.52590 | -40.55082 | 15186 ft | 356 kts | 21° |
| 2026-04-21 02:36 | -20.50304 | -40.54077 | 14772 ft | 354 kts | 21° |
| 2026-04-21 02:37 | -20.48031 | -40.53079 | 14387 ft | 352 kts | 21° |
| 2026-04-21 02:37 | -20.45798 | -40.52098 | 13998 ft | 350 kts | 21° |
| 2026-04-21 02:37 | -20.43545 | -40.51110 | 13552 ft | 349 kts | 21° |
| 2026-04-21 02:37 | -20.41300 | -40.50124 | 13125 ft | 347 kts | 21° |
| 2026-04-21 02:38 | -20.39077 | -40.49149 | 12732 ft | 344 kts | 21° |
| 2026-04-21 02:38 | -20.36861 | -40.48177 | 12338 ft | 342 kts | 21° |
| 2026-04-21 02:38 | -20.34655 | -40.47259 | 11913 ft | 340 kts | 16° |
| 2026-04-21 02:38 | -20.32371 | -40.46618 | 11458 ft | 339 kts | 11° |
| 2026-04-21 02:39 | -20.30062 | -40.46098 | 11016 ft | 339 kts | 9° |
| 2026-04-21 02:39 | -20.27775 | -40.45588 | 10554 ft | 340 kts | 10° |
| 2026-04-21 02:39 | -20.25461 | -40.45041 | 10076 ft | 341 kts | 11° |
| 2026-04-21 02:39 | -20.23178 | -40.44478 | 9994 ft | 329 kts | 11° |
| 2026-04-21 02:40 | -20.20996 | -40.43932 | 9926 ft | 317 kts | 11° |
| 2026-04-21 02:40 | -20.18883 | -40.43404 | 9824 ft | 306 kts | 11° |
| 2026-04-21 02:40 | -20.16846 | -40.42895 | 9741 ft | 295 kts | 11° |
| 2026-04-21 02:40 | -20.14863 | -40.42401 | 9553 ft | 290 kts | 11° |
| 2026-04-21 02:41 | -20.13565 | -40.42078 | 9374 ft | 288 kts | 11° |
| 2026-04-21 02:41 | -20.11013 | -40.41320 | 8937 ft | 289 kts | 26° |
| 2026-04-21 02:41 | -20.09460 | -40.39954 | 8507 ft | 294 kts | 54° |
| 2026-04-21 02:41 | -20.08558 | -40.37974 | 7973 ft | 301 kts | 72° |
| 2026-04-21 02:42 | -20.08136 | -40.36555 | 7603 ft | 306 kts | 73° |
| 2026-04-21 02:42 | -20.07516 | -40.34380 | 7155 ft | 302 kts | 73° |
| 2026-04-21 02:42 | -20.06719 | -40.31657 | 7001 ft | 279 kts | 73° |
| 2026-04-21 02:42 | -20.06330 | -40.30355 | 6936 ft | 269 kts | 73° |
| 2026-04-21 02:43 | -20.05782 | -40.28533 | 6822 ft | 254 kts | 73° |
| 2026-04-21 02:43 | -20.05367 | -40.26757 | 6711 ft | 240 kts | 82° |
| 2026-04-21 02:43 | -20.05152 | -40.25029 | 6541 ft | 229 kts | 84° |
| 2026-04-21 02:43 | -20.04959 | -40.23370 | 6251 ft | 222 kts | 84° |
| 2026-04-21 02:44 | -20.04763 | -40.21775 | 5961 ft | 213 kts | 84° |
| 2026-04-21 02:44 | -20.04567 | -40.20224 | 5665 ft | 211 kts | 84° |
| 2026-04-21 02:44 | -20.04368 | -40.18685 | 5383 ft | 207 kts | 85° |
| 2026-04-21 02:44 | -20.04471 | -40.17202 | 5061 ft | 200 kts | 115° |
| 2026-04-21 02:45 | -20.05320 | -40.16084 | 4659 ft | 197 kts | 149° |
| 2026-04-21 02:45 | -20.06616 | -40.15676 | 4230 ft | 198 kts | 180° |
| 2026-04-21 02:45 | -20.07955 | -40.16005 | 3806 ft | 198 kts | 199° |
| 2026-04-21 02:45 | -20.09215 | -40.16542 | 3370 ft | 197 kts | 201° |
| 2026-04-21 02:46 | -20.10483 | -40.17104 | 2902 ft | 197 kts | 201° |
| 2026-04-21 02:46 | -20.11742 | -40.17699 | 2375 ft | 201 kts | 205° |
| 2026-04-21 02:46 | -20.12868 | -40.18562 | 2095 ft | 193 kts | 222° |
| 2026-04-21 02:46 | -20.13682 | -40.19643 | 1972 ft | 182 kts | 234° |
| 2026-04-21 02:47 | -20.14276 | -40.20787 | 1840 ft | 173 kts | 237° |
| 2026-04-21 02:47 | -20.14848 | -40.21878 | 1710 ft | 167 kts | 238° |
| 2026-04-21 02:47 | -20.15415 | -40.22956 | 1657 ft | 166 kts | 237° |
| 2026-04-21 02:47 | -20.15981 | -40.24029 | 1598 ft | 167 kts | 238° |
| 2026-04-21 02:48 | -20.16551 | -40.25109 | 1546 ft | 168 kts | 238° |
| 2026-04-21 02:48 | -20.17114 | -40.26175 | 1453 ft | 167 kts | 238° |
| 2026-04-21 02:48 | -20.17745 | -40.27178 | 1381 ft | 156 kts | 227° |
| 2026-04-21 02:48 | -20.18526 | -40.27901 | 1244 ft | 142 kts | 211° |
| 2026-04-21 02:49 | -20.19398 | -40.28368 | 1202 ft | 133 kts | 200° |
| 2026-04-21 02:49 | -20.20194 | -40.28592 | 1083 ft | 117 kts | 189° |
| 2026-04-21 02:49 | -20.21041 | -40.28648 | 898 ft | 118 kts | 182° |
| 2026-04-21 02:49 | -20.21984 | -40.28587 | 763 ft | 161 kts | 172° |
| 2026-04-21 02:50 | -20.23174 | -40.28356 | 513 ft | 188 kts | 170° |
| 2026-04-21 02:50 | -20.24464 | -40.28065 | 1410 ft | 194 kts | 169° |
| 2026-04-21 02:50 | -20.25848 | -40.27763 | 1835 ft | 210 kts | 171° |
| 2026-04-21 02:50 | -20.27329 | -40.27578 | 2411 ft | 219 kts | 175° |
| 2026-04-21 02:51 | -20.28850 | -40.27423 | 3227 ft | 220 kts | 174° |
| 2026-04-21 02:51 | -20.30377 | -40.27238 | 3696 ft | 222 kts | 172° |
| 2026-04-21 02:51 | -20.31869 | -40.26539 | 3987 ft | 253 kts | 140° |
| 2026-04-21 02:51 | -20.32824 | -40.24932 | 3998 ft | 265 kts | 108° |
| 2026-04-21 02:52 | -20.32887 | -40.22966 | 3996 ft | 271 kts | 79° |
| 2026-04-21 02:52 | -20.32069 | -40.21181 | 4003 ft | 277 kts | 52° |
| 2026-04-21 02:52 | -20.30612 | -40.19828 | 4008 ft | 280 kts | 36° |
| 2026-04-21 02:52 | -20.28965 | -40.18706 | 3999 ft | 279 kts | 33° |
| 2026-04-21 02:53 | -20.27326 | -40.17635 | 3984 ft | 274 kts | 33° |
| 2026-04-21 02:53 | -20.25738 | -40.16571 | 3983 ft | 264 kts | 34° |
| 2026-04-21 02:53 | -20.24234 | -40.15534 | 3972 ft | 251 kts | 35° |
| 2026-04-21 02:53 | -20.22809 | -40.14537 | 3975 ft | 238 kts | 35° |
| 2026-04-21 02:54 | -20.21435 | -40.13567 | 3991 ft | 237 kts | 36° |
| 2026-04-21 02:54 | -20.20048 | -40.12586 | 4008 ft | 246 kts | 36° |
| 2026-04-21 02:54 | -20.18597 | -40.11592 | 3998 ft | 250 kts | 28° |
| 2026-04-21 02:54 | -20.16945 | -40.11218 | 3990 ft | 246 kts | 354° |
| 2026-04-21 02:55 | -20.15358 | -40.11798 | 3764 ft | 244 kts | 322° |
| 2026-04-21 02:55 | -20.14195 | -40.13132 | 3314 ft | 250 kts | 301° |
| 2026-04-21 02:55 | -20.13254 | -40.14705 | 2817 ft | 253 kts | 298° |
| 2026-04-21 02:55 | -20.12340 | -40.16308 | 2439 ft | 250 kts | 298° |
| 2026-04-21 02:56 | -20.11742 | -40.17996 | 1962 ft | 245 kts | 269° |
| 2026-04-21 02:56 | -20.13370 | -40.20648 | 1700 ft | 208 kts | 210° |
| 2026-04-21 02:56 | -20.14570 | -40.21408 | 1716 ft | 191 kts | 208° |
| 2026-04-21 02:57 | -20.15648 | -40.22083 | 1747 ft | 184 kts | 209° |
| 2026-04-21 02:57 | -20.16746 | -40.22780 | 1779 ft | 172 kts | 210° |
| 2026-04-21 02:57 | -20.17738 | -40.23416 | 1800 ft | 164 kts | 209° |
| 2026-04-21 02:57 | -20.18700 | -40.24033 | 1867 ft | 164 kts | 210° |
| 2026-04-21 02:58 | -20.19634 | -40.24638 | 1854 ft | 149 kts | 210° |
| 2026-04-21 02:58 | -20.20484 | -40.25181 | 1754 ft | 138 kts | 210° |
| 2026-04-21 02:58 | -20.21302 | -40.25693 | 1485 ft | 138 kts | 210° |
| 2026-04-21 02:58 | -20.22111 | -40.26248 | 1149 ft | 139 kts | 213° |
| 2026-04-21 02:59 | -20.22918 | -40.26811 | 821 ft | 138 kts | 211° |
| 2026-04-21 02:59 | -20.23760 | -40.27331 | 499 ft | 141 kts | 214° |
| 2026-04-21 02:59 | -20.24593 | -40.27885 | 177 ft | 140 kts | 211° |
| 2026-04-21 02:59 | -20.25387 | -40.28409 | 31 ft | 130 kts | 213° |
| 2026-04-21 03:00 | -20.26029 | -40.28835 | 18 ft | 58 kts | 211° |
| 2026-04-21 03:00 | -20.26177 | -40.28931 | 22 ft | 15 kts | 210° |
| 2026-04-21 03:00 | -20.26259 | -40.28985 | 25 ft | 13 kts | 212° |
| 2026-04-21 03:00 | -20.26336 | -40.29036 | 21 ft | 13 kts | 212° |
| 2026-04-21 03:01 | -20.26402 | -40.29093 | 21 ft | 11 kts | 245° |
| 2026-04-21 03:01 | -20.26360 | -40.29128 | 18 ft | 9 kts | 345° |
| 2026-04-21 03:01 | -20.26300 | -40.29140 | 18 ft | 9 kts | 351° |
| 2026-04-21 03:01 | -20.26241 | -40.29144 | 21 ft | 8 kts | 6° |
| 2026-04-21 03:02 | -20.26185 | -40.29129 | 20 ft | 8 kts | 30° |
| 2026-04-21 03:02 | -20.26139 | -40.29095 | 21 ft | 8 kts | 33° |
| 2026-04-21 03:02 | -20.26093 | -40.29064 | 20 ft | 8 kts | 32° |
| 2026-04-21 03:02 | -20.26039 | -40.29028 | 17 ft | 10 kts | 32° |
| 2026-04-21 03:03 | -20.25984 | -40.28990 | 17 ft | 9 kts | 38° |
| 2026-04-21 03:03 | -20.25977 | -40.28938 | 16 ft | 8 kts | 116° |
| 2026-04-21 03:03 | -20.26005 | -40.28890 | 16 ft | 8 kts | 122° |
| 2026-04-21 03:03 | -20.26012 | -40.28838 | 18 ft | 7 kts | 68° |
| 2026-04-21 03:04 | -20.25975 | -40.28803 | 17 ft | 7 kts | 32° |
| 2026-04-21 03:04 | -20.25925 | -40.28769 | 16 ft | 11 kts | 32° |
| 2026-04-21 03:04 | -20.25846 | -40.28716 | 18 ft | 15 kts | 32° |
| 2026-04-21 03:04 | -20.25787 | -40.28640 | 16 ft | 14 kts | 98° |
| 2026-04-21 03:05 | -20.25832 | -40.28551 | 18 ft | 13 kts | 123° |
| 2026-04-21 03:05 | -20.25868 | -40.28462 | 18 ft | 13 kts | 104° |
| 2026-04-21 03:05 | -20.25888 | -40.28369 | 23 ft | 13 kts | 102° |
| 2026-04-21 03:05 | -20.25907 | -40.28280 | 27 ft | 11 kts | 103° |
| 2026-04-21 03:06 | -20.25923 | -40.28206 | 31 ft | 10 kts | 102° |
| 2026-04-21 03:06 | -20.25944 | -40.28137 | 34 ft | 10 kts | 128° |
| 2026-04-21 03:06 | -20.26006 | -40.28112 | 35 ft | 10 kts | 172° |
| 2026-04-21 03:06 | -20.26071 | -40.28102 | 34 ft | 9 kts | 172° |
| 2026-04-21 03:07 | -20.26134 | -40.28094 | 33 ft | 9 kts | 172° |
| 2026-04-21 03:07 | -20.26195 | -40.28085 | 32 ft | 9 kts | 173° |
| 2026-04-21 03:07 | -20.26256 | -40.28076 | 34 ft | 9 kts | 173° |
| 2026-04-21 03:07 | -20.26315 | -40.28068 | 32 ft | 8 kts | 172° |
| 2026-04-21 03:08 | -20.26373 | -40.28060 | 34 ft | 8 kts | 172° |
| 2026-04-21 03:08 | -20.26428 | -40.28052 | 32 ft | 8 kts | 172° |
| 2026-04-21 03:08 | -20.26482 | -40.28044 | 34 ft | 8 kts | 172° |
| 2026-04-21 03:08 | -20.26523 | -40.28063 | 34 ft | 7 kts | 262° |
| 2026-04-21 03:09 | -20.26527 | -40.28118 | 34 ft | 7 kts | 263° |
| 2026-04-21 03:09 | -20.26533 | -40.28163 | 34 ft | 4 kts | 262° |
| 2026-04-21 03:09 | -20.26534 | -40.28169 | 34 ft | 0 kts | 262° |